createdAt,value
2018-09-15T00:02:55.020Z,14.47
2018-09-15T00:08:24.260Z,12.70
2018-09-15T00:13:53.598Z,15.27
2018-09-15T00:19:22.873Z,9.67
2018-09-15T00:24:52.944Z,13.47
2018-09-15T00:30:23.229Z,12.63
2018-09-15T00:35:52.581Z,9.60
2018-09-15T00:41:21.854Z,11.13
2018-09-15T00:46:51.139Z,16.07
2018-09-15T00:52:20.394Z,15.37
2018-09-15T00:57:49.642Z,8.43
2018-09-15T01:03:18.980Z,8.10
2018-09-15T01:08:48.327Z,9.60
2018-09-15T01:14:17.733Z,7.10
2018-09-15T01:19:47.129Z,7.13
2018-09-15T01:25:19.898Z,8.70
2018-09-15T01:30:49.153Z,6.70
2018-09-15T01:36:23.337Z,6.73
2018-09-15T01:41:52.629Z,6.30
2018-09-15T01:47:21.909Z,6.90
2018-09-15T01:53:09.179Z,6.70
2018-09-15T01:58:38.827Z,7.20
2018-09-15T02:04:08.903Z,7.63
2018-09-15T02:09:38.494Z,7.27
2018-09-15T02:15:07.846Z,7.37
2018-09-15T02:20:39.014Z,5.93
2018-09-15T02:26:08.907Z,10.07
2018-09-15T02:31:38.423Z,7.08
2018-09-15T02:37:07.829Z,7.37
2018-09-15T02:42:37.179Z,7.63
2018-09-15T02:48:08.677Z,10.30
2018-09-15T02:53:38.167Z,6.93
2018-09-15T02:59:07.576Z,6.00
2018-09-15T03:04:39.092Z,9.57
2018-09-15T03:10:08.482Z,7.27
2018-09-15T03:15:37.761Z,8.03
2018-09-15T03:21:07.409Z,7.20
2018-09-15T03:26:36.851Z,7.60
2018-09-15T03:32:07.220Z,10.27
2018-09-15T03:37:36.616Z,7.63
2018-09-15T03:43:06.041Z,8.80
2018-09-15T03:48:35.413Z,6.70
2018-09-15T03:54:04.637Z,7.00
2018-09-15T03:59:35.344Z,12.53
2018-09-15T04:05:04.661Z,8.17
2018-09-15T04:10:33.932Z,15.27
2018-09-15T04:16:03.196Z,9.20
2018-09-15T04:21:32.415Z,9.10
2018-09-15T04:27:01.721Z,7.70
2018-09-15T04:32:31.138Z,8.67
2018-09-15T04:38:06.113Z,10.17
2018-09-15T04:43:35.369Z,8.77
2018-09-15T04:49:09.750Z,9.63
2018-09-15T04:54:39.293Z,16.03
2018-09-15T05:00:08.879Z,13.53
2018-09-15T05:05:38.261Z,14.03
2018-09-15T05:11:07.743Z,13.40
2018-09-15T05:16:38.267Z,22.73
2018-09-15T05:22:07.795Z,23.67
2018-09-15T05:27:37.136Z,31.70
2018-09-15T05:33:06.489Z,29.50
2018-09-15T05:38:35.775Z,52.23
2018-09-15T05:44:10.820Z,41.13
2018-09-15T05:49:44.003Z,44.50
2018-09-15T05:55:13.455Z,45.03
2018-09-15T06:00:42.889Z,40.53
2018-09-15T06:06:12.249Z,45.50
2018-09-15T06:11:42.403Z,52.20
2018-09-15T06:17:11.855Z,46.60
2018-09-15T06:22:41.241Z,47.00
2018-09-15T06:28:12.561Z,44.27
2018-09-15T06:33:42.104Z,47.80
2018-09-15T06:39:11.959Z,45.83
2018-09-15T06:44:43.585Z,43.93
2018-09-15T06:50:13.063Z,37.87
2018-09-15T06:55:42.444Z,40.77
2018-09-15T07:01:11.833Z,38.10
2018-09-15T07:06:41.693Z,40.65
2018-09-15T07:12:11.163Z,41.70
2018-09-15T07:17:40.821Z,36.58
2018-09-15T07:23:13.898Z,38.50
2018-09-15T07:28:43.989Z,42.17
2018-09-15T07:34:13.465Z,37.70
2018-09-15T07:39:43.029Z,36.00
2018-09-15T07:45:13.771Z,30.97
2018-09-15T07:50:43.454Z,37.77
2018-09-15T07:56:14.172Z,31.93
2018-09-15T08:01:44.000Z,30.33
2018-09-15T08:07:13.588Z,31.60
2018-09-15T08:12:43.097Z,30.83
2018-09-15T08:18:12.688Z,27.98
2018-09-15T08:23:42.971Z,22.90
2018-09-15T08:29:12.501Z,25.37
2018-09-15T08:34:41.947Z,24.80
2018-09-15T08:40:11.329Z,31.70
2018-09-15T08:45:41.927Z,29.37
2018-09-15T08:51:11.404Z,32.30
2018-09-15T08:56:40.765Z,29.55
2018-09-15T09:02:14.402Z,31.30
2018-09-15T09:07:43.770Z,28.90
2018-09-15T09:13:14.292Z,26.27
2018-09-15T09:18:44.111Z,27.87
2018-09-15T09:24:13.672Z,26.97
2018-09-15T09:29:43.113Z,25.87
2018-09-15T09:35:12.882Z,30.30
2018-09-15T09:40:42.372Z,29.13
2018-09-15T09:46:15.210Z,26.73
2018-09-15T09:51:44.548Z,25.03
2018-09-15T09:57:14.163Z,26.07
2018-09-15T10:02:45.756Z,21.90
2018-09-15T10:08:15.315Z,18.03
2018-09-15T10:13:45.051Z,24.83
2018-09-15T10:19:15.745Z,21.57
2018-09-15T10:24:45.348Z,27.00
2018-09-15T10:30:14.938Z,20.00
2018-09-15T10:35:45.095Z,20.20
2018-09-15T10:41:14.575Z,19.03
2018-09-15T10:46:44.214Z,18.07
2018-09-15T10:52:13.591Z,18.43
2018-09-15T10:57:43.409Z,23.27
2018-09-15T11:03:12.938Z,18.50
2018-09-15T11:08:42.711Z,21.03
2018-09-15T11:14:12.523Z,20.20
2018-09-15T11:19:42.000Z,23.23
2018-09-15T11:25:11.799Z,18.27
2018-09-15T11:30:41.298Z,17.73
2018-09-15T11:36:11.656Z,18.80
2018-09-15T11:41:41.296Z,21.05
2018-09-15T11:47:11.076Z,14.13
2018-09-15T11:52:41.463Z,13.63
2018-09-15T11:58:11.122Z,14.10
2018-09-15T12:03:41.207Z,14.60
2018-09-15T12:09:12.680Z,12.37
2018-09-15T12:14:42.495Z,11.63
2018-09-15T12:20:12.230Z,12.07
2018-09-15T12:25:42.039Z,12.17
2018-09-15T12:31:11.641Z,11.53
2018-09-15T12:36:43.007Z,11.65
2018-09-15T12:42:13.189Z,17.50
2018-09-15T12:47:44.784Z,9.70
2018-09-15T12:53:14.501Z,17.67
2018-09-15T12:58:44.081Z,13.10
2018-09-15T13:04:14.730Z,13.03
2018-09-15T13:09:52.374Z,11.10
2018-09-15T13:15:21.949Z,10.13
2018-09-15T13:20:51.584Z,10.53
2018-09-15T13:26:24.008Z,10.93
2018-09-15T13:31:54.027Z,11.30
2018-09-15T13:37:25.140Z,11.50
2018-09-15T13:42:54.464Z,11.43
2018-09-15T13:48:23.677Z,11.65
2018-09-15T13:53:53.048Z,11.30
2018-09-15T13:59:32.361Z,11.00
2018-09-15T14:05:01.852Z,10.57
2018-09-15T14:10:31.194Z,9.60
2018-09-15T14:16:00.588Z,8.97
2018-09-15T14:21:30.191Z,11.00
2018-09-15T14:26:59.519Z,9.40
2018-09-15T14:32:29.109Z,7.90
2018-09-15T14:37:58.576Z,13.37
2018-09-15T14:43:28.116Z,9.90
2018-09-15T14:48:57.418Z,8.60
2018-09-15T14:54:26.733Z,11.70
2018-09-15T14:59:56.056Z,10.53
2018-09-15T15:05:27.415Z,9.73
2018-09-15T15:10:57.420Z,8.10
2018-09-15T15:16:26.776Z,13.13
2018-09-15T15:21:56.065Z,11.15
2018-09-15T15:27:35.055Z,14.07
2018-09-15T15:33:04.279Z,12.07
2018-09-15T15:38:33.608Z,9.27
2018-09-15T15:44:03.025Z,12.20
2018-09-15T15:49:32.473Z,9.15
2018-09-15T15:55:01.775Z,9.87
2018-09-15T16:00:31.122Z,12.17
2018-09-15T16:06:00.310Z,11.90
2018-09-15T16:11:29.669Z,8.58
2018-09-15T16:16:58.889Z,14.93
2018-09-15T16:22:28.254Z,10.27
2018-09-15T16:27:57.565Z,11.60
2018-09-15T16:33:26.960Z,10.35
2018-09-15T16:38:56.472Z,13.85
2018-09-15T16:44:26.164Z,19.57
2018-09-15T16:49:55.535Z,13.00
2018-09-15T16:55:24.880Z,17.83
2018-09-15T17:00:55.127Z,16.17
2018-09-15T17:06:24.543Z,9.60
2018-09-15T17:11:53.823Z,8.03
2018-09-15T17:17:23.159Z,9.63
2018-09-15T17:22:52.670Z,11.33
2018-09-15T17:28:32.124Z,17.70
2018-09-15T17:34:01.689Z,11.83
2018-09-15T17:39:31.357Z,13.30
2018-09-15T17:45:06.382Z,13.07
2018-09-15T17:50:35.981Z,17.40
2018-09-15T17:56:05.229Z,15.20
2018-09-15T18:01:34.587Z,10.87
2018-09-15T18:07:04.117Z,12.13
2018-09-15T18:12:39.161Z,9.83
2018-09-15T18:18:10.141Z,10.03
2018-09-15T18:23:40.297Z,10.20
2018-09-15T18:29:09.761Z,12.13
2018-09-15T18:34:39.241Z,12.73
2018-09-15T18:40:09.133Z,8.50
2018-09-15T18:45:38.698Z,8.80
2018-09-15T18:51:07.784Z,12.90
2018-09-15T18:56:37.492Z,10.47
2018-09-15T19:02:08.564Z,15.73
2018-09-15T19:07:37.979Z,16.53
2018-09-15T19:13:07.610Z,17.50
2018-09-15T19:18:37.234Z,13.27
2018-09-15T19:24:06.804Z,13.47
2018-09-15T19:29:36.550Z,19.17
2018-09-15T19:35:06.118Z,10.37
2018-09-15T19:40:35.591Z,10.07
2018-09-15T19:46:05.116Z,11.47
2018-09-15T19:51:34.624Z,12.28
2018-09-15T19:57:04.097Z,70.40
2018-09-15T20:02:36.591Z,36.23
2018-09-15T20:08:06.575Z,31.90
2018-09-15T20:13:35.945Z,31.07
2018-09-15T20:19:03.998Z,48.33
2018-09-15T20:24:33.359Z,41.17
2018-09-15T20:30:02.791Z,32.78
2018-09-15T20:35:32.572Z,31.00
2018-09-15T20:41:01.897Z,20.57
2018-09-15T20:46:32.583Z,18.55
2018-09-15T20:52:11.270Z,16.40
2018-09-15T20:57:40.940Z,17.23
2018-09-15T21:03:11.139Z,19.30
2018-09-15T21:08:40.916Z,15.83
2018-09-15T21:14:11.251Z,19.17
2018-09-15T21:19:40.932Z,35.90
2018-09-15T21:25:11.410Z,21.33
2018-09-15T21:30:41.936Z,20.77
2018-09-15T21:36:11.350Z,22.27
2018-09-15T21:41:41.504Z,20.77
2018-09-15T21:47:10.940Z,23.85
2018-09-15T21:52:40.414Z,29.32
2018-09-15T21:58:10.178Z,20.97
2018-09-15T22:03:45.055Z,20.52
2018-09-15T22:09:14.552Z,27.00
2018-09-15T22:14:43.961Z,25.40
2018-09-15T22:20:14.463Z,20.53
2018-09-15T22:25:43.895Z,26.83
2018-09-15T22:31:13.223Z,22.17
2018-09-15T22:36:42.684Z,25.75
2018-09-15T22:42:12.119Z,20.62
2018-09-15T22:47:41.651Z,25.63
2018-09-15T22:53:11.104Z,22.80
2018-09-15T22:58:41.101Z,25.80
2018-09-15T23:04:12.255Z,22.13
2018-09-15T23:09:41.692Z,21.43
2018-09-15T23:15:13.122Z,25.33
2018-09-15T23:20:42.563Z,24.63
2018-09-15T23:26:11.986Z,25.13
2018-09-15T23:31:41.508Z,27.10
2018-09-15T23:37:11.031Z,26.10
2018-09-15T23:42:40.475Z,26.63
2018-09-15T23:48:11.983Z,25.27
2018-09-15T23:53:41.668Z,26.23
2018-09-15T23:59:11.443Z,23.33
